Latest Coastal Weather Observations for Bedout Island

IDW60701

Issued at 7:42 am WST Monday 25 May 2015 (issued every 10 minutes, with the page automatically refreshed every 10 minutes)

About coastal observations | Map of coastal stations | Coastal observations for WA | Marine services | Other Formats
Station Details ID: 004100 Name: BEDOUT ISLAND Lat: -19.59 Lon: 119.10 Height: 8.6 m
Data from the previous 72 hours. | See also: Recent months for locations in Western Australia
Date/Time
WST
Temp

°C
Wind Pressure Rain
since 9am
mm
Weather Cloud Vis
km
Sea
Height
m
Swell
Dir
 
Speed
knots
Gust
knots
hPa Trend Height
m
Period
s
Dir
25/07:30am 18.2 E 27 33 1016.9 - - - - - - - - -
25/07:00am 18.4 E 24 28 1017.1 - - - - - - - - -
25/06:30am 18.7 ESE 23 27 1016.5 - - - - - - - - -
25/06:00am 18.5 ESE 19 21 1016.9 - - - - - - - - -
25/05:30am 18.2 E 22 25 1016.0 - - - - - - - - -
25/05:13am 18.9 E 23 25 1015.9 - - - - - - - - -
25/05:00am 19.6 ESE 22 25 1015.6 - - - - - - - - -
25/04:30am 20.5 ESE 20 24 1015.4 - - - - - - - - -
25/04:00am 20.6 ESE 22 27 1015.0 - - - - - - - - -
25/03:30am 19.5 ESE 20 24 1015.2 - - - - - - - - -
25/03:00am 19.4 ESE 20 23 1015.6 - - - - - - - - -
25/02:30am 19.4 ESE 17 21 1016.0 - - - - - - - - -
25/02:00am 20.3 ESE 18 22 1015.6 - - - - - - - - -
25/01:30am 20.1 ESE 20 23 1015.6 - - - - - - - - -
25/01:00am 19.9 ESE 20 23 1015.7 - - - - - - - - -
25/12:30am 19.2 ESE 21 26 1015.4 - - - - - - - - -
25/12:00am 19.1 E 20 24 1015.8 - - - - - - - - -
 
Date/Time
WST
Temp

°C
Wind Pressure Rain
since 9am
mm
Weather Cloud Vis
km
Sea
Height
m
Swell
Dir
 
Speed
knots
Gust
knots
hPa Trend Height
m
Period
s
Dir
24/11:30pm 19.0 ESE 18 20 1016.4 - - - - - - - - -
24/11:00pm 20.3 E 15 18 1017.5 - - - - - - - - -
24/10:30pm 20.9 ESE 19 22 1016.3 - - - - - - - - -
24/10:00pm 20.5 ESE 19 22 1016.1 - - - - - - - - -
24/09:30pm 20.7 ESE 15 19 1016.4 - - - - - - - - -
24/09:00pm 20.2 ESE 17 20 1016.4 - - - - - - - - -
24/08:30pm 22.0 ESE 18 21 1016.1 - - - - - - - - -
24/08:00pm 21.8 SE 18 20 1016.2 - - - - - - - - -
24/07:30pm 21.3 SE 18 21 1015.8 - - - - - - - - -
24/07:00pm 21.1 SE 18 21 1015.5 - - - - - - - - -
24/06:30pm 21.2 SE 16 17 1015.3 - - - - - - - - -
24/06:00pm 21.3 SE 16 18 1015.1 - - - - - - - - -
24/05:30pm 21.4 SE 17 20 1014.8 - - - - - - - - -
24/05:00pm 21.4 SE 17 19 1014.5 - - - - - - - - -
24/04:30pm 21.5 SE 16 18 1014.2 - - - - - - - - -
24/04:00pm 21.7 SE 17 20 1013.8 - - - - - - - - -
24/03:30pm 21.8 SE 17 19 1013.7 - - - - - - - - -
24/03:00pm 21.6 SE 16 19 1013.9 - - - - - - - - -
24/02:30pm 21.2 SE 18 21 1013.9 - - - - - - - - -
24/02:00pm 21.1 SSE 15 18 1014.6 - - - - - - - - -
24/01:30pm 21.0 SSE 12 14 1014.9 - - - - - - - - -
24/01:00pm 21.3 SSE 11 14 1015.2 - - - - - - - - -
24/12:30pm 21.4 SSE 14 17 1015.0 - - - - - - - - -
24/12:00pm 21.1 SSE 10 12 1016.3 - - - - - - - - -
24/11:30am 22.0 E 11 15 1017.2 - - - - - - - - -
24/11:00am 23.1 ESE 17 20 1015.8 - - - - - - - - -
24/10:30am 22.8 SE 17 19 1015.7 - - - - - - - - -
24/10:00am 22.5 SE 16 18 1016.2 - - - - - - - - -
24/09:30am 22.3 SE 16 17 1015.9 - - - - - - - - -
24/09:00am 22.4 SE 18 20 1015.5 - - - - - - - - -
24/08:30am 22.1 SE 16 18 1015.6 - - - - - - - - -
24/08:00am 22.2 SSE 16 18 1015.3 - - - - - - - - -
24/07:30am 22.6 SE 20 23 1014.8 - - - - - - - - -
24/07:00am 22.5 SSE 18 20 1014.7 - - - - - - - - -
24/06:30am 22.4 SSE 17 20 1014.7 - - - - - - - - -
24/06:00am 22.8 SSE 20 22 1014.0 - - - - - - - - -
24/05:30am 22.9 SE 18 21 1013.9 - - - - - - - - -
24/05:00am 22.8 SSE 17 19 1014.2 - - - - - - - - -
24/04:30am 23.3 SE 17 19 1014.0 - - - - - - - - -
24/04:00am 23.6 SE 17 19 1013.5 - - - - - - - - -
24/03:30am 23.7 SE 17 19 1013.5 - - - - - - - - -
24/03:00am 23.2 SE 14 18 1013.6 - - - - - - - - -
24/02:30am 23.6 ESE 13 16 1014.0 - - - - - - - - -
24/02:00am 23.8 ESE 12 15 1014.2 - - - - - - - - -
24/01:30am 24.0 SE 14 16 1014.0 - - - - - - - - -
24/01:00am 23.9 SE 14 16 1014.0 - - - - - - - - -
24/12:30am 23.8 SE 13 16 1014.1 - - - - - - - - -
24/12:00am 23.9 SSE 14 15 1014.2 - - - - - - - - -
 
Date/Time
WST
Temp

°C
Wind Pressure Rain
since 9am
mm
Weather Cloud Vis
km
Sea
Height
m
Swell
Dir
 
Speed
knots
Gust
knots
hPa Trend Height
m
Period
s
Dir
23/11:30pm 23.8 SSE 14 16 1014.5 - - - - - - - - -
23/11:00pm 23.9 SSE 14 17 1014.7 - - - - - - - - -
23/10:30pm 24.0 S 13 15 1015.0 - - - - - - - - -
23/10:00pm 23.6 S 1 3 1015.1 - - - - - - - - -
23/09:30pm 23.4 SSW 2 3 1015.4 - - - - - - - - -
23/09:00pm 23.8 CALM 0 3 1014.8 - - - - - - - - -
23/08:30pm 24.8 CALM 0 1 1015.1 - - - - - - - - -
23/08:00pm 24.9 CALM 0 0 1014.9 - - - - - - - - -
23/07:30pm 24.7 CALM 0 1 1014.8 - - - - - - - - -
23/07:00pm 24.7 CALM 0 2 1014.5 - - - - - - - - -
23/06:30pm 25.0 NE 1 5 1014.5 - - - - - - - - -
23/06:00pm 25.1 NE 3 4 1014.0 - - - - - - - - -
23/05:30pm 25.3 NE 3 4 1014.2 - - - - - - - - -
23/05:00pm 25.5 NE 5 6 1013.8 - - - - - - - - -
23/04:30pm 25.3 NE 7 8 1013.6 - - - - - - - - -
23/04:00pm 25.8 NE 7 9 1013.5 - - - - - - - - -
23/03:30pm 25.9 ENE 7 8 1013.4 - - - - - - - - -
23/03:00pm 26.0 ENE 7 8 1013.3 - - - - - - - - -
23/02:30pm 26.4 E 8 8 1013.4 - - - - - - - - -
23/02:00pm 26.7 E 8 9 1013.5 - - - - - - - - -
23/01:30pm 26.5 E 8 9 1013.7 - - - - - - - - -
23/01:00pm 26.8 E 7 8 1014.3 - - - - - - - - -
23/12:30pm 26.7 E 8 11 1014.7 - - - - - - - - -
23/12:00pm 26.3 ENE 11 13 1014.6 - - - - - - - - -
23/11:30am 26.9 ENE 12 13 1014.9 - - - - - - - - -
23/11:00am 26.9 E 12 13 1015.4 - - - - - - - - -
23/10:30am 26.7 E 13 15 1015.6 - - - - - - - - -
23/10:00am 26.3 E 12 14 1015.6 - - - - - - - - -
23/09:30am 25.5 ESE 13 14 1016.1 - - - - - - - - -
23/09:00am 26.2 E 14 15 1015.8 - - - - - - - - -
23/08:30am 25.4 ESE 10 11 1016.0 - - - - - - - - -
23/08:00am 24.6 ESE 9 11 1015.8 - - - - - - - - -
23/07:30am 24.1 ESE 10 11 1015.6 - - - - - - - - -
23/07:00am 22.9 ESE 10 11 1015.3 - - - - - - - - -
23/06:30am 22.7 SE 10 11 1015.0 - - - - - - - - -
23/06:00am 23.0 SE 10 11 1015.0 - - - - - - - - -
23/05:30am 23.1 SE 11 12 1014.8 - - - - - - - - -
23/05:00am 23.4 SSE 10 12 1014.9 - - - - - - - - -
23/04:30am 24.2 ESE 10 12 1014.7 - - - - - - - - -
23/04:00am 24.3 ESE 13 15 1014.7 - - - - - - - - -
23/03:30am 24.5 ESE 13 15 1014.6 - - - - - - - - -
23/03:00am 24.7 SE 11 13 1014.6 - - - - - - - - -
23/02:30am 24.7 SE 10 11 1014.8 - - - - - - - - -
23/02:00am 24.2 SE 9 11 1014.9 - - - - - - - - -
23/01:30am 24.1 S 9 11 1015.0 - - - - - - - - -
23/01:00am 23.6 S 7 8 1015.1 - - - - - - - - -
23/12:30am 23.7 S 8 9 1015.3 - - - - - - - - -
23/12:00am 23.5 S 9 11 1015.3 - - - - - - - - -
 
Date/Time
WST
Temp

°C
Wind Pressure Rain
since 9am
mm
Weather Cloud Vis
km
Sea
Height
m
Swell
Dir
 
Speed
knots
Gust
knots
hPa Trend Height
m
Period
s
Dir
22/11:30pm 23.4 S 11 13 1015.6 - - - - - - - - -
22/11:00pm 23.8 S 11 12 1015.7 - - - - - - - - -
22/10:30pm 23.9 SSW 9 11 1015.8 - - - - - - - - -
22/10:00pm 23.4 SSW 8 9 1015.8 - - - - - - - - -
22/09:30pm 23.0 S 7 8 1015.7 - - - - - - - - -
22/09:00pm 23.1 S 6 6 1015.8 - - - - - - - - -
22/08:30pm 23.2 S 4 5 1016.1 - - - - - - - - -
22/08:00pm 23.4 S 4 5 1015.8 - - - - - - - - -
22/07:30pm 23.5 ENE 4 5 1015.6 - - - - - - - - -
22/07:00pm 24.2 ENE 1 3 1015.4 - - - - - - - - -
22/06:30pm 24.4 ENE 4 4 1015.2 - - - - - - - - -
22/06:00pm 24.8 ENE 4 5 1014.8 - - - - - - - - -
22/05:30pm 24.9 ENE 5 5 1014.8 - - - - - - - - -
22/05:00pm 25.2 ENE 8 9 1014.5 - - - - - - - - -
22/04:30pm 25.3 ENE 9 10 1014.2 - - - - - - - - -
22/04:00pm 25.7 ENE 10 11 1014.1 - - - - - - - - -
22/03:30pm 25.9 ENE 11 12 1014.1 - - - - - - - - -
22/03:00pm 26.1 ENE 11 12 1014.2 - - - - - - - - -
22/02:30pm 26.8 ENE 12 13 1014.4 - - - - - - - - -
22/02:00pm 26.3 ENE 14 15 1014.4 - - - - - - - - -
22/01:30pm 26.7 ENE 15 18 1014.4 - - - - - - - - -
22/01:00pm 26.3 E 15 17 1015.0 - - - - - - - - -
22/12:30pm 26.1 E 15 16 1015.6 - - - - - - - - -
22/12:00pm 25.7 E 14 16 1016.2 - - - - - - - - -
22/11:30am 26.6 E 14 17 1016.9 - - - - - - - - -
22/11:00am 25.9 E 16 17 1017.0 - - - - - - - - -
22/10:30am 25.6 E 18 21 1017.0 - - - - - - - - -
22/10:00am 25.2 E 17 18 1017.6 - - - - - - - - -
22/09:30am 25.3 ESE 15 16 1018.0 - - - - - - - - -
22/09:00am 25.0 E 15 17 1017.7 - - - - - - - - -
22/08:30am 24.5 E 15 17 1017.4 - - - - - - - - -
22/08:00am 24.3 E 16 19 1017.3 - - - - - - - - -

Other Formats:

Comma delimited format used in spreadsheet applications
http://www.bom.gov.au/fwo/IDW60701/IDW60701.94310.axf

JavaScript Object Notation format (JSON) in row-major order
http://www.bom.gov.au/fwo/IDW60701/IDW60701.94310.json